createdAt,value
2022-09-06T00:01:12.802Z,80.74
2022-09-06T00:03:41.132Z,80.79
2022-09-06T00:06:15.405Z,80.92
2022-09-06T00:08:45.221Z,80.78
2022-09-06T00:11:14.328Z,80.60
2022-09-06T00:13:42.413Z,80.49
2022-09-06T00:16:16.488Z,80.31
2022-09-06T00:18:45.355Z,79.91
2022-09-06T00:21:25.221Z,79.17
2022-09-06T00:23:53.812Z,78.99
2022-09-06T00:26:22.871Z,79.10
2022-09-06T00:28:50.879Z,79.20
2022-09-06T00:31:21.798Z,79.37
2022-09-06T00:33:50.123Z,79.43
2022-09-06T00:36:18.909Z,79.61
2022-09-06T00:38:47.201Z,79.81
2022-09-06T00:41:16.508Z,79.77
2022-09-06T00:43:44.891Z,79.52
2022-09-06T00:46:19.374Z,79.40
2022-09-06T00:48:53.067Z,79.15
2022-09-06T00:51:23.811Z,79.16
2022-09-06T00:53:52.234Z,79.33
2022-09-06T00:56:20.761Z,79.28
2022-09-06T00:58:50.143Z,79.20
2022-09-06T01:01:18.819Z,79.33
2022-09-06T01:03:48.546Z,79.68
2022-09-06T01:06:20.051Z,80.42
2022-09-06T01:09:01.488Z,81.01
2022-09-06T01:11:50.840Z,81.61
2022-09-06T01:14:35.813Z,82.01
2022-09-06T01:17:22.791Z,82.48
2022-09-06T01:19:59.501Z,83.15
2022-09-06T01:22:57.104Z,83.26
2022-09-06T01:25:43.850Z,83.62
2022-09-06T01:28:33.417Z,84.47
2022-09-06T01:31:18.452Z,84.73
2022-09-06T01:34:07.686Z,85.24
2022-09-06T01:37:10.570Z,85.75
2022-09-06T01:39:40.549Z,85.74
2022-09-06T01:42:16.550Z,86.46
2022-09-06T01:45:07.601Z,86.64
2022-09-06T01:47:44.144Z,85.65
2022-09-06T01:50:32.921Z,85.21
2022-09-06T01:53:22.565Z,85.43
2022-09-06T01:56:13.223Z,85.69
2022-09-06T01:58:59.730Z,85.98
2022-09-06T02:01:46.207Z,85.65
2022-09-06T02:04:22.959Z,86.03
2022-09-06T02:06:55.971Z,86.26
2022-09-06T02:09:25.735Z,87.04
2022-09-06T02:11:59.951Z,87.25
2022-09-06T02:15:15.149Z,87.51
2022-09-06T02:18:11.125Z,87.72
2022-09-06T02:20:45.066Z,88.60
2022-09-06T02:23:15.098Z,89.09
2022-09-06T02:25:51.106Z,89.33
2022-09-06T02:28:19.313Z,89.43
2022-09-06T02:30:54.220Z,90.23
2022-09-06T02:33:26.485Z,91.05
2022-09-06T02:35:55.342Z,91.43
2022-09-06T02:38:26.711Z,91.53
2022-09-06T02:40:55.984Z,91.66
2022-09-06T02:43:23.849Z,91.59
2022-09-06T02:45:51.743Z,91.66
2022-09-06T02:48:19.595Z,91.99
2022-09-06T02:50:47.464Z,92.09
2022-09-06T02:53:16.634Z,92.38
2022-09-06T02:55:47.591Z,92.16
2022-09-06T02:58:15.906Z,92.19
2022-09-06T03:00:44.120Z,92.27
2022-09-06T03:03:12.210Z,92.30
2022-09-06T03:05:40.241Z,92.65
2022-09-06T03:08:08.459Z,92.38
2022-09-06T03:10:36.401Z,92.95
2022-09-06T03:13:04.361Z,93.36
2022-09-06T03:15:32.341Z,93.29
2022-09-06T03:18:03.114Z,93.36
2022-09-06T03:20:35.036Z,93.32
2022-09-06T03:23:05.473Z,93.11
2022-09-06T03:25:33.456Z,93.15
2022-09-06T03:28:01.775Z,93.20
2022-09-06T03:30:30.815Z,93.28
2022-09-06T03:33:02.651Z,93.36
2022-09-06T03:35:32.135Z,93.76
2022-09-06T03:37:59.995Z,94.18
2022-09-06T03:40:27.874Z,94.57
2022-09-06T03:42:55.648Z,94.64
2022-09-06T03:45:23.452Z,94.74
2022-09-06T03:47:51.599Z,94.58
2022-09-06T03:50:19.579Z,94.71
2022-09-06T03:52:47.393Z,94.55
2022-09-06T03:55:15.411Z,94.54
2022-09-06T03:57:43.329Z,94.50
2022-09-06T04:00:11.963Z,94.41
2022-09-06T04:02:39.853Z,94.80
2022-09-06T04:05:08.393Z,95.00
2022-09-06T04:07:38.179Z,95.05
2022-09-06T04:10:06.515Z,95.03
2022-09-06T04:12:34.981Z,95.00
2022-09-06T04:15:03.007Z,95.12
2022-09-06T04:17:31.079Z,95.06
2022-09-06T04:19:58.885Z,95.23
2022-09-06T04:22:26.766Z,95.06
2022-09-06T04:24:55.079Z,94.74
2022-09-06T04:27:22.944Z,94.89
2022-09-06T04:29:50.882Z,94.82
2022-09-06T04:32:18.704Z,94.76
2022-09-06T04:34:46.584Z,94.88
2022-09-06T04:37:17.926Z,94.95
2022-09-06T04:39:46.659Z,94.95
2022-09-06T04:42:14.618Z,95.30
2022-09-06T04:44:42.785Z,95.62
2022-09-06T04:47:15.813Z,95.74
2022-09-06T04:49:44.213Z,95.83
2022-09-06T04:52:14.765Z,96.00
2022-09-06T04:54:42.965Z,96.35
2022-09-06T04:57:10.986Z,96.31
2022-09-06T04:59:38.932Z,96.42
2022-09-06T05:02:06.863Z,96.40
2022-09-06T05:04:34.750Z,96.38
2022-09-06T05:07:04.974Z,96.48
2022-09-06T05:09:33.744Z,96.52
2022-09-06T05:12:02.242Z,96.72
2022-09-06T05:14:30.908Z,96.65
2022-09-06T05:16:59.061Z,96.64
2022-09-06T05:19:27.011Z,96.51
2022-09-06T05:21:55.042Z,96.36
2022-09-06T05:24:22.942Z,96.33
2022-09-06T05:26:50.760Z,96.27
2022-09-06T05:29:18.608Z,96.22
2022-09-06T05:31:46.492Z,96.09
2022-09-06T05:34:15.124Z,96.08
2022-09-06T05:36:43.760Z,96.14
2022-09-06T05:39:11.689Z,95.81
2022-09-06T05:41:39.669Z,95.68
2022-09-06T05:44:07.953Z,95.73
2022-09-06T05:46:43.047Z,95.73
2022-09-06T05:49:11.589Z,95.76
2022-09-06T05:51:40.142Z,95.79
2022-09-06T05:54:10.702Z,95.64
2022-09-06T05:56:38.484Z,95.33
2022-09-06T05:59:06.492Z,94.66
2022-09-06T06:01:34.576Z,94.61
2022-09-06T06:04:05.355Z,93.69
2022-09-06T06:06:34.698Z,92.94
2022-09-06T06:09:06.430Z,93.20
2022-09-06T06:11:34.339Z,92.76
2022-09-06T06:14:04.069Z,92.60
2022-09-06T06:16:31.990Z,92.36
2022-09-06T06:18:59.801Z,92.46
2022-09-06T06:21:30.095Z,91.89
2022-09-06T06:24:00.542Z,90.35
2022-09-06T06:26:31.164Z,90.53
2022-09-06T06:29:01.814Z,90.44
2022-09-06T06:31:31.479Z,90.62
2022-09-06T06:34:03.619Z,90.49
2022-09-06T06:36:33.882Z,89.86
2022-09-06T06:39:03.834Z,88.41
2022-09-06T06:41:33.007Z,86.08
2022-09-06T06:44:03.075Z,81.26
2022-09-06T06:46:39.291Z,80.11
2022-09-06T06:49:07.774Z,81.60
2022-09-06T06:51:37.817Z,82.23
2022-09-06T06:54:06.392Z,81.15
2022-09-06T06:56:37.455Z,79.35
2022-09-06T06:59:07.805Z,76.68
2022-09-06T07:01:37.480Z,75.32
2022-09-06T07:04:07.486Z,73.69
2022-09-06T07:12:31.790Z,70.50
2022-09-06T07:14:59.702Z,70.14
2022-09-06T07:17:27.950Z,68.89
2022-09-06T07:22:40.240Z,65.39
2022-09-06T07:25:13.340Z,65.24
2022-09-06T07:27:47.213Z,63.96
2022-09-06T07:30:16.417Z,63.87
2022-09-06T07:32:44.246Z,62.78
2022-09-06T07:35:13.790Z,62.83
2022-09-06T07:37:42.128Z,62.18
2022-09-06T07:40:11.261Z,61.31
2022-09-06T07:42:39.606Z,61.06
2022-09-06T07:45:08.360Z,59.96
2022-09-06T07:53:15.512Z,61.28
2022-09-06T07:55:45.877Z,61.16
2022-09-06T07:58:14.305Z,59.89
2022-09-06T08:00:42.381Z,60.08
2022-09-06T08:03:10.322Z,59.08
2022-09-06T08:11:18.842Z,60.03
2022-09-06T08:13:51.160Z,60.98
2022-09-06T08:16:20.217Z,62.01
2022-09-06T08:19:18.474Z,62.02
2022-09-06T08:21:46.740Z,62.09
2022-09-06T08:24:14.840Z,62.99
2022-09-06T08:26:43.181Z,63.05
2022-09-06T08:29:12.276Z,62.93
2022-09-06T08:31:44.772Z,63.77
2022-09-06T08:34:14.223Z,63.79
2022-09-06T08:36:43.587Z,63.25
2022-09-06T08:39:11.942Z,63.58
2022-09-06T08:41:55.301Z,65.03
2022-09-06T08:47:21.603Z,65.22
2022-09-06T08:49:54.664Z,65.02
2022-09-06T08:53:00.129Z,64.04
2022-09-06T08:55:37.921Z,64.96
2022-09-06T08:58:21.434Z,64.35
2022-09-06T09:00:58.689Z,64.63
2022-09-06T09:03:47.357Z,64.58
2022-09-06T09:06:15.680Z,63.38
2022-09-06T09:09:10.367Z,63.73
2022-09-06T09:11:42.788Z,62.76
2022-09-06T09:14:20.037Z,62.79
2022-09-06T09:16:58.868Z,62.84
2022-09-06T09:19:26.810Z,63.22
2022-09-06T09:21:55.540Z,62.67
2022-09-06T09:24:25.103Z,62.70
2022-09-06T09:27:12.864Z,61.67
2022-09-06T09:32:46.173Z,60.20
2022-09-06T09:35:17.341Z,60.50
2022-09-06T09:37:46.628Z,60.37
2022-09-06T09:40:28.799Z,58.42
2022-09-06T09:43:11.140Z,60.45
2022-09-06T09:45:39.172Z,59.01
2022-09-06T09:48:27.637Z,59.10
2022-09-06T09:50:56.230Z,59.61
2022-09-06T09:53:26.058Z,59.43
2022-09-06T09:55:59.192Z,58.71
2022-09-06T09:58:37.547Z,58.83
2022-09-06T10:01:18.148Z,60.06
2022-09-06T10:09:33.530Z,59.24
2022-09-06T10:12:01.647Z,58.59
2022-09-06T10:14:33.263Z,59.17
2022-09-06T10:17:01.582Z,57.72
2022-09-06T10:19:44.173Z,57.82
2022-09-06T10:22:31.700Z,57.36
2022-09-06T10:25:31.155Z,57.85
2022-09-06T10:28:16.633Z,57.36
2022-09-06T10:30:58.325Z,57.53
2022-09-06T10:33:53.904Z,58.52
2022-09-06T10:36:34.561Z,57.50
2022-09-06T10:39:21.341Z,56.39
2022-09-06T10:42:05.822Z,55.76
2022-09-06T10:44:58.040Z,55.63
2022-09-06T10:47:35.198Z,56.90
2022-09-06T10:50:05.238Z,56.32
2022-09-06T10:52:42.090Z,56.61
2022-09-06T10:55:15.758Z,57.28
2022-09-06T11:00:47.402Z,56.36
2022-09-06T11:06:14.036Z,55.52
2022-09-06T11:09:10.780Z,55.28
2022-09-06T11:11:47.623Z,55.05
2022-09-06T11:14:16.579Z,54.61
2022-09-06T11:17:10.148Z,54.64
2022-09-06T11:19:47.470Z,53.22
2022-09-06T11:22:45.775Z,53.15
2022-09-06T11:25:23.439Z,53.95
2022-09-06T11:27:58.065Z,53.32
2022-09-06T11:30:29.755Z,53.04
2022-09-06T11:33:25.874Z,52.87
2022-09-06T11:36:14.432Z,52.38
2022-09-06T11:38:43.305Z,52.12
2022-09-06T11:41:17.819Z,51.40
2022-09-06T11:43:51.897Z,51.57
2022-09-06T11:46:35.022Z,52.14
2022-09-06T11:49:32.171Z,51.30
2022-09-06T11:52:00.550Z,50.88
2022-09-06T11:54:44.540Z,51.03
2022-09-06T11:57:21.562Z,51.52
2022-09-06T12:00:00.551Z,50.62
2022-09-06T12:02:35.599Z,50.90
2022-09-06T12:05:07.189Z,50.36
2022-09-06T12:07:59.363Z,49.83
2022-09-06T12:10:30.583Z,48.28
2022-09-06T12:12:58.884Z,49.07
2022-09-06T12:15:45.450Z,49.67
2022-09-06T12:18:42.337Z,49.63
2022-09-06T12:21:31.428Z,48.93
2022-09-06T12:24:00.389Z,48.28
2022-09-06T12:26:51.969Z,47.54
2022-09-06T12:29:27.574Z,47.87
2022-09-06T12:31:58.807Z,48.15
2022-09-06T12:34:33.637Z,47.80
2022-09-06T12:37:08.064Z,47.37
2022-09-06T12:39:36.165Z,46.56
2022-09-06T12:42:12.818Z,47.07
2022-09-06T12:44:49.606Z,47.06
2022-09-06T12:47:34.036Z,47.10
2022-09-06T12:50:13.728Z,47.54
2022-09-06T12:52:53.626Z,47.58
2022-09-06T12:55:28.591Z,47.82
2022-09-06T12:57:58.799Z,47.39
2022-09-06T13:00:54.696Z,47.24
2022-09-06T13:03:41.105Z,48.05
2022-09-06T13:06:24.541Z,48.19
2022-09-06T13:08:57.215Z,48.59
2022-09-06T13:11:36.667Z,48.46
2022-09-06T13:14:23.867Z,47.95
2022-09-06T13:16:53.374Z,48.11
2022-09-06T13:19:38.240Z,48.81
2022-09-06T13:22:13.798Z,48.52
2022-09-06T13:24:47.736Z,48.01
2022-09-06T13:27:35.848Z,48.17
2022-09-06T13:30:08.816Z,48.57
2022-09-06T13:32:45.597Z,48.88
2022-09-06T13:35:29.339Z,49.55
2022-09-06T13:38:19.831Z,49.01
2022-09-06T13:41:11.840Z,48.73
2022-09-06T13:43:45.570Z,49.09
2022-09-06T13:46:13.806Z,48.89
2022-09-06T13:48:44.482Z,48.78
2022-09-06T13:51:12.773Z,47.97
2022-09-06T13:53:40.639Z,48.58
2022-09-06T13:56:16.490Z,46.34
2022-09-06T13:58:45.185Z,46.35
2022-09-06T14:01:14.237Z,47.29
2022-09-06T14:03:42.825Z,46.65
2022-09-06T14:06:11.105Z,46.63
2022-09-06T14:09:03.331Z,45.91
2022-09-06T14:11:28.101Z,45.74
2022-09-06T14:13:56.267Z,44.99
2022-09-06T14:16:24.920Z,46.72
2022-09-06T14:18:53.194Z,46.17
2022-09-06T14:21:21.323Z,46.53
2022-09-06T14:23:53.713Z,46.45
2022-09-06T14:26:23.294Z,46.97
2022-09-06T14:28:52.434Z,46.88
2022-09-06T14:31:23.715Z,46.85
2022-09-06T14:33:53.000Z,45.79
2022-09-06T14:36:23.345Z,45.39
2022-09-06T14:38:52.463Z,45.05
2022-09-06T14:41:21.422Z,44.91
2022-09-06T14:43:55.446Z,44.85
2022-09-06T14:46:24.554Z,45.05
2022-09-06T14:49:02.165Z,44.88
2022-09-06T14:51:31.619Z,43.74
2022-09-06T14:54:04.461Z,43.67
2022-09-06T14:56:32.727Z,43.83
2022-09-06T14:59:01.062Z,44.07
2022-09-06T15:01:37.160Z,43.58
2022-09-06T15:04:28.369Z,43.19
2022-09-06T15:06:56.698Z,43.79
2022-09-06T15:09:25.292Z,43.63
2022-09-06T15:11:54.346Z,43.82
2022-09-06T15:14:29.576Z,42.97
2022-09-06T15:17:00.406Z,42.28
2022-09-06T15:19:30.122Z,43.04
2022-09-06T15:22:00.954Z,42.03
2022-09-06T15:24:29.635Z,41.54
2022-09-06T15:26:58.738Z,41.42
2022-09-06T15:29:27.471Z,41.59
2022-09-06T15:31:56.132Z,41.65
2022-09-06T15:34:26.430Z,41.80
2022-09-06T15:36:56.664Z,42.11
2022-09-06T15:39:25.203Z,42.49
2022-09-06T15:41:53.527Z,42.51
2022-09-06T15:44:23.310Z,42.41
2022-09-06T15:46:58.393Z,43.64
2022-09-06T15:49:29.456Z,44.18
2022-09-06T15:52:00.866Z,44.06
2022-09-06T15:54:48.183Z,43.28
2022-09-06T15:57:17.356Z,43.60
2022-09-06T15:59:46.038Z,43.77
2022-09-06T16:02:15.003Z,44.04
2022-09-06T16:04:43.681Z,44.16
2022-09-06T16:07:12.459Z,44.63
2022-09-06T16:09:40.723Z,44.63
2022-09-06T16:12:09.898Z,45.01
2022-09-06T16:14:38.577Z,45.25
2022-09-06T16:17:06.464Z,44.90
2022-09-06T16:19:35.088Z,45.62
2022-09-06T16:22:03.214Z,46.25
2022-09-06T16:24:31.534Z,46.57
2022-09-06T16:26:59.680Z,46.35
2022-09-06T16:29:30.024Z,46.48
2022-09-06T16:31:59.895Z,47.59
2022-09-06T16:34:28.621Z,47.98
2022-09-06T16:36:57.937Z,47.34
2022-09-06T16:39:28.242Z,47.61
2022-09-06T16:41:56.125Z,47.48
2022-09-06T16:44:24.095Z,48.99
2022-09-06T16:46:53.676Z,50.28
2022-09-06T16:49:22.873Z,50.81
2022-09-06T16:51:53.782Z,50.96
2022-09-06T16:54:21.962Z,51.57
2022-09-06T16:56:50.317Z,51.58
2022-09-06T16:59:18.672Z,51.85
2022-09-06T17:01:47.354Z,52.19
2022-09-06T17:04:15.829Z,51.53
2022-09-06T17:06:46.997Z,51.59
2022-09-06T17:09:18.709Z,51.48
2022-09-06T17:11:49.769Z,51.85
2022-09-06T17:14:18.028Z,52.57
2022-09-06T17:17:04.565Z,53.16
2022-09-06T17:19:41.667Z,53.87
2022-09-06T17:22:11.573Z,54.21
2022-09-06T17:24:40.716Z,54.56
2022-09-06T17:27:09.591Z,54.75
2022-09-06T17:29:39.942Z,54.98
2022-09-06T17:32:10.196Z,55.22
2022-09-06T17:34:40.351Z,55.45
2022-09-06T17:37:11.459Z,55.74
2022-09-06T17:39:40.408Z,55.89
2022-09-06T17:42:11.537Z,56.14
2022-09-06T17:44:39.582Z,56.36
2022-09-06T17:47:12.934Z,56.57
2022-09-06T17:49:44.539Z,56.75
2022-09-06T17:52:12.655Z,56.91
2022-09-06T17:54:40.680Z,56.88
2022-09-06T17:57:09.017Z,57.19
2022-09-06T17:59:38.253Z,57.35
2022-09-06T18:02:06.452Z,57.51
2022-09-06T18:04:35.159Z,57.64
2022-09-06T18:07:05.685Z,57.58
2022-09-06T18:09:33.994Z,57.83
2022-09-06T18:12:02.208Z,58.21
2022-09-06T18:14:30.172Z,58.42
2022-09-06T18:16:58.726Z,58.33
2022-09-06T18:19:27.984Z,58.52
2022-09-06T18:21:57.424Z,58.23
2022-09-06T18:24:25.656Z,58.36
2022-09-06T18:26:53.738Z,58.83
2022-09-06T18:29:21.791Z,59.17
2022-09-06T18:31:53.395Z,59.13
2022-09-06T18:34:21.929Z,59.03
2022-09-06T18:36:50.247Z,59.34
2022-09-06T18:39:19.279Z,59.68
2022-09-06T18:42:03.963Z,59.98
2022-09-06T18:44:33.651Z,60.79
2022-09-06T18:47:03.741Z,61.67
2022-09-06T18:49:33.776Z,62.33
2022-09-06T18:52:03.699Z,62.56
2022-09-06T18:54:32.445Z,62.95
2022-09-06T18:57:00.507Z,63.49
2022-09-06T18:59:28.523Z,63.67
2022-09-06T19:01:56.878Z,63.75
2022-09-06T19:04:25.086Z,63.30
2022-09-06T19:06:53.055Z,63.58
2022-09-06T19:09:21.377Z,64.22
2022-09-06T19:11:51.695Z,64.94
2022-09-06T19:14:20.264Z,66.30
2022-09-06T19:16:50.095Z,66.62
2022-09-06T19:19:18.449Z,67.26
2022-09-06T19:21:46.289Z,67.61
2022-09-06T19:24:16.034Z,68.10
2022-09-06T19:26:49.765Z,68.34
2022-09-06T19:29:21.272Z,68.80
2022-09-06T19:31:49.502Z,69.06
2022-09-06T19:34:20.589Z,69.25
2022-09-06T19:36:50.006Z,69.60
2022-09-06T19:39:18.506Z,69.83
2022-09-06T19:41:50.276Z,70.25
2022-09-06T19:44:20.714Z,70.62
2022-09-06T19:46:49.181Z,70.96
2022-09-06T19:49:20.078Z,71.23
2022-09-06T19:51:50.387Z,71.51
2022-09-06T19:54:18.992Z,71.82
2022-09-06T19:56:47.501Z,72.48
2022-09-06T19:59:16.501Z,73.03
2022-09-06T20:01:46.366Z,73.57
2022-09-06T20:04:15.693Z,73.52
2022-09-06T20:06:43.705Z,73.87
2022-09-06T20:09:12.094Z,74.07
2022-09-06T20:11:42.148Z,74.19
2022-09-06T20:14:11.496Z,74.14
2022-09-06T20:16:42.961Z,74.48
2022-09-06T20:19:12.306Z,74.74
2022-09-06T20:21:40.545Z,74.89
2022-09-06T20:24:08.857Z,75.05
2022-09-06T20:26:40.567Z,75.29
2022-09-06T20:29:08.877Z,75.42
2022-09-06T20:31:38.975Z,75.45
2022-09-06T20:34:16.126Z,75.48
2022-09-06T20:36:44.161Z,75.50
2022-09-06T20:39:12.378Z,75.16
2022-09-06T20:41:40.274Z,74.91
2022-09-06T20:44:08.768Z,75.16
2022-09-06T20:46:41.165Z,75.37
2022-09-06T20:49:09.264Z,75.58
2022-09-06T20:51:43.643Z,75.70
2022-09-06T20:54:11.973Z,75.68
2022-09-06T20:56:41.700Z,77.38
2022-09-06T20:59:12.221Z,79.91
2022-09-06T21:01:43.039Z,81.29
2022-09-06T21:04:13.272Z,80.70
2022-09-06T21:06:45.760Z,82.40
2022-09-06T21:09:14.515Z,82.89
2022-09-06T21:11:43.254Z,83.07
2022-09-06T21:14:11.876Z,84.47
2022-09-06T21:16:40.724Z,84.75
2022-09-06T21:19:12.948Z,84.60
2022-09-06T21:21:41.240Z,84.01
2022-09-06T21:24:10.780Z,84.71
2022-09-06T21:26:38.988Z,85.06
2022-09-06T21:29:07.436Z,85.24
2022-09-06T21:31:37.477Z,85.90
2022-09-06T21:34:11.475Z,86.20
2022-09-06T21:36:43.125Z,86.85
2022-09-06T21:39:12.668Z,86.39
2022-09-06T21:41:42.303Z,86.54
2022-09-06T21:44:10.704Z,86.97
2022-09-06T21:46:40.043Z,86.68
2022-09-06T21:49:11.947Z,86.85
2022-09-06T21:51:42.773Z,86.82
2022-09-06T21:54:11.139Z,86.05
2022-09-06T21:56:40.141Z,86.12
2022-09-06T21:59:09.111Z,86.59
2022-09-06T22:01:38.441Z,86.93
2022-09-06T22:04:08.222Z,87.34
2022-09-06T22:06:37.642Z,87.35
2022-09-06T22:09:11.164Z,86.83
2022-09-06T22:11:41.479Z,86.88
2022-09-06T22:14:11.598Z,87.54
2022-09-06T22:16:40.680Z,87.15
2022-09-06T22:19:09.573Z,87.24
2022-09-06T22:21:38.771Z,87.49
2022-09-06T22:24:12.040Z,87.82
2022-09-06T22:26:41.738Z,87.49
2022-09-06T22:29:13.378Z,87.56
2022-09-06T22:31:41.748Z,87.40
2022-09-06T22:34:10.527Z,87.51
2022-09-06T22:36:39.275Z,87.60
2022-09-06T22:39:10.750Z,87.80
2022-09-06T22:41:39.192Z,88.15
2022-09-06T22:44:10.650Z,88.08
2022-09-06T22:46:39.609Z,88.18
2022-09-06T22:49:08.223Z,88.09
2022-09-06T22:51:36.086Z,87.82
2022-09-06T22:54:05.208Z,87.83
2022-09-06T22:56:33.677Z,87.71
2022-09-06T22:59:01.702Z,87.50
2022-09-06T23:01:29.624Z,87.38
2022-09-06T23:03:58.869Z,87.41
2022-09-06T23:06:26.774Z,87.25
2022-09-06T23:08:54.526Z,86.98
2022-09-06T23:11:22.511Z,87.31
2022-09-06T23:13:54.812Z,88.13
2022-09-06T23:16:22.688Z,88.61
2022-09-06T23:18:50.816Z,88.00
2022-09-06T23:21:21.724Z,88.17
2022-09-06T23:23:52.102Z,87.36
2022-09-06T23:26:27.499Z,86.94
2022-09-06T23:28:56.877Z,87.38
2022-09-06T23:31:28.178Z,88.61
2022-09-06T23:33:58.295Z,89.79
2022-09-06T23:36:27.583Z,90.16
2022-09-06T23:38:57.818Z,90.81
2022-09-06T23:41:25.792Z,92.11
2022-09-06T23:43:53.843Z,93.13
2022-09-06T23:46:21.785Z,94.04
2022-09-06T23:48:49.665Z,94.46
2022-09-06T23:51:17.782Z,95.38
2022-09-06T23:53:46.009Z,96.19
2022-09-06T23:56:14.028Z,96.68
2022-09-06T23:58:41.895Z,96.66
